< < Back
Terminal Aerodrome Forecast


Current Version              Previous Versions:   1  2  3  4  5  6  7  8  9  

Terminal Aerodrome Forecast

879
FTUS42 KFFC 011700
TAFPDK
TAF
KPDK 011736Z 0118/0218 06005KT P6SM VCSH SCT025 BKN035
      TEMPO 0118/0122 6SM -SHRA BR BKN025
     FM020700 07003KT 6SM BR BKN012
     FM020900 07003KT 5SM BR OVC009
     FM021400 07004KT P6SM VCSH BKN015
     FM021600 07005KT P6SM VCSH BKN035=



Latest METAR

133
SAUS70 KWBC 020200 RRH
MTRPDK
METAR KPDK 020153Z AUTO VRB03KT 10SM CLR 23/18 A3007 RMK AO2 SLP170
T02280178 TSNO


USA.gov is the U.S. government's official web portal to all federal, state and local government web resources and services.